Time;durP1;ratioP1;P1;durP2;ratioP2;P2;SDS_P1;SDS_P2;PMS_P1;PMS_P2;Temp;Humidity;BMP_temperature;BMP_pressure;BME280_temperature;BME280_humidity;BME280_pressure;Samples;Min_cycle;Max_cycle;Signal;HPM_P1;HPM_P2
2024/02/07 00:02:13;;;;;;;8.48;4.15;;;9.80;99.90;;;;;;4965896;28;20034;-81
2024/02/07 00:04:39;;;;;;;11.43;3.28;;;9.90;99.90;;;;;;4940673;28;20080;-81
2024/02/07 00:07:04;;;;;;;11.98;4.72;;;9.90;99.90;;;;;;4952292;28;20033;-81
2024/02/07 00:09:30;;;;;;;9.02;3.53;;;9.90;99.90;;;;;;4954288;28;20134;-81
2024/02/07 00:11:55;;;;;;;10.93;4.80;;;9.90;99.90;;;;;;4967461;28;20113;-81
2024/02/07 00:14:21;;;;;;;7.60;3.78;;;9.80;99.90;;;;;;4984254;28;20050;-81
2024/02/07 00:16:46;;;;;;;9.48;3.63;;;9.70;99.90;;;;;;4968114;28;20038;-81
2024/02/07 00:19:12;;;;;;;7.15;2.92;;;9.90;99.90;;;;;;4938973;28;20023;-81
2024/02/07 00:21:38;;;;;;;12.10;4.05;;;9.90;99.90;;;;;;4942072;28;20419;-81
2024/02/07 00:24:03;;;;;;;7.03;3.67;;;9.90;99.90;;;;;;4954813;28;20435;-81
2024/02/07 00:26:29;;;;;;;6.70;3.42;;;9.90;99.90;;;;;;4936773;28;20110;-81
2024/02/07 00:28:55;;;;;;;8.93;3.85;;;9.80;99.90;;;;;;4966051;28;20061;-82
2024/02/07 00:31:21;;;;;;;10.60;2.97;;;9.80;99.90;;;;;;4972754;28;20368;-81
2024/02/07 00:33:47;;;;;;;8.30;3.83;;;9.80;99.90;;;;;;4966219;28;20776;-82
2024/02/07 00:36:12;;;;;;;10.02;3.20;;;9.80;99.90;;;;;;4939019;28;20058;-81
2024/02/07 00:38:39;;;;;;;10.07;3.30;;;9.80;99.90;;;;;;4958015;28;20038;-81
2024/02/07 00:41:04;;;;;;;7.97;3.38;;;9.80;99.90;;;;;;4964860;28;20034;-81
2024/02/07 00:44:09;;;;;;;;;;;;;;;;;;;;;
2024/02/07 00:47:25;;;;;;;9.93;3.47;;;9.90;99.90;;;;;;4909451;28;20547;-81
2024/02/07 00:53:45;;;;;;;8.70;4.10;;;9.80;99.90;;;;;;4838729;29;20835;-82
2024/02/07 00:56:14;;;;;;;7.35;3.25;;;9.80;99.90;;;;;;4946807;28;20109;-82
2024/02/07 00:59:06;;;;;;;9.80;3.00;;;9.80;99.90;;;;;;4919222;28;20113;-81
2024/02/07 01:01:43;;;;;;;;;;;;;;;;;;;;;
2024/02/07 01:04:09;;;;;;;6.43;3.53;;;9.80;99.90;;;;;;4948846;28;20039;-81
2024/02/07 01:06:35;;;;;;;7.88;5.22;;;9.80;99.90;;;;;;4952463;28;20030;-82
2024/02/07 01:09:00;;;;;;;10.60;4.15;;;9.80;99.90;;;;;;4956569;28;20033;-81
2024/02/07 01:11:26;;;;;;;10.98;4.05;;;9.90;99.90;;;;;;4967347;28;20113;-81
2024/02/07 01:13:51;;;;;;;7.07;3.60;;;9.80;99.90;;;;;;4952664;28;20388;-81
2024/02/07 01:16:17;;;;;;;8.57;4.88;;;9.90;99.90;;;;;;4951288;28;20505;-81
2024/02/07 01:18:43;;;;;;;9.18;3.83;;;9.90;99.90;;;;;;4940476;28;20394;-81
2024/02/07 01:21:09;;;;;;;10.65;4.82;;;9.80;99.90;;;;;;4935116;28;20034;-81
2024/02/07 01:23:37;;;;;;;7.78;4.07;;;9.80;99.90;;;;;;4969138;28;20030;-82
2024/02/07 01:26:06;;;;;;;8.23;3.92;;;9.90;99.90;;;;;;4973117;28;20030;-81
2024/02/07 01:28:31;;;;;;;3.28;2.00;;;9.90;99.90;;;;;;4964450;28;20030;-82
2024/02/07 01:30:58;;;;;;;10.38;3.67;;;9.80;99.90;;;;;;4959855;28;20097;-82
2024/02/07 01:33:23;;;;;;;7.82;3.25;;;9.90;99.90;;;;;;4941080;28;20548;-82
2024/02/07 01:35:49;;;;;;;4.82;3.00;;;9.90;99.90;;;;;;4942741;28;20035;-81
2024/02/07 01:38:17;;;;;;;10.23;3.70;;;9.90;99.90;;;;;;4943904;28;20073;-81
2024/02/07 01:40:45;;;;;;;7.93;4.25;;;9.90;99.90;;;;;;4955172;28;20050;-82
2024/02/07 01:43:11;;;;;;;9.32;4.22;;;9.90;99.90;;;;;;4940259;28;21589;-82
2024/02/07 01:45:39;;;;;;;8.90;3.42;;;9.90;99.90;;;;;;4940762;28;20061;-82
2024/02/07 01:48:08;;;;;;;6.93;3.20;;;9.90;99.90;;;;;;4956524;28;20045;-82
2024/02/07 01:50:38;;;;;;;6.93;3.40;;;9.90;99.90;;;;;;4960029;28;20398;-82
2024/02/07 01:53:04;;;;;;;4.97;3.92;;;9.90;99.90;;;;;;4936082;28;20033;-82
2024/02/07 01:55:31;;;;;;;4.82;2.60;;;9.90;99.90;;;;;;4940675;28;20102;-81
2024/02/07 01:57:56;;;;;;;5.82;3.40;;;9.90;99.90;;;;;;4956967;28;20042;-82
2024/02/07 02:00:23;;;;;;;6.47;3.08;;;9.90;99.90;;;;;;4957791;28;20093;-82
2024/02/07 02:02:53;;;;;;;9.52;3.13;;;10.00;99.90;;;;;;4949138;28;20121;-81
2024/02/07 02:05:18;;;;;;;7.50;3.90;;;9.90;99.90;;;;;;4958619;28;20493;-82
2024/02/07 02:07:44;;;;;;;12.48;3.08;;;9.90;99.90;;;;;;4939810;28;20026;-81
2024/02/07 02:10:10;;;;;;;6.72;3.50;;;9.90;99.90;;;;;;4960575;28;20129;-82
2024/02/07 02:12:36;;;;;;;5.05;2.53;;;10.00;99.90;;;;;;4975781;28;20030;-83
2024/02/07 02:15:03;;;;;;;6.50;3.22;;;9.90;99.90;;;;;;4957773;28;20435;-82
2024/02/07 02:17:28;;;;;;;7.05;3.45;;;9.90;99.90;;;;;;4955682;28;20035;-81
2024/02/07 02:19:54;;;;;;;6.22;3.35;;;9.90;99.90;;;;;;4956719;28;20029;-81
2024/02/07 02:22:39;;;;;;;7.60;3.42;;;9.80;99.90;;;;;;4961756;28;20041;-81
2024/02/07 02:25:37;;;;;;;7.15;2.53;;;9.90;99.90;;;;;;4966375;28;20101;-82
2024/02/07 02:28:18;;;;;;;6.43;4.15;;;9.90;99.90;;;;;;4934661;28;20045;-82
2024/02/07 02:30:50;;;;;;;7.50;2.90;;;9.80;99.90;;;;;;4985923;28;20544;-82
2024/02/07 02:33:18;;;;;;;6.68;3.17;;;9.90;99.90;;;;;;4964324;28;20038;-82
2024/02/07 02:35:45;;;;;;;6.78;3.47;;;9.90;99.90;;;;;;4968720;28;20121;-81
2024/02/07 02:38:13;;;;;;;5.30;3.60;;;9.90;99.90;;;;;;4971631;28;20442;-82
2024/02/07 02:40:39;;;;;;;7.40;4.05;;;9.80;99.90;;;;;;4954339;28;20078;-82
2024/02/07 02:43:05;;;;;;;6.72;2.75;;;9.80;99.90;;;;;;4972305;28;20030;-81
2024/02/07 02:45:31;;;;;;;10.02;3.30;;;10.00;99.90;;;;;;4986784;28;20038;-82
2024/02/07 02:47:58;;;;;;;3.78;2.75;;;9.80;99.90;;;;;;4971935;28;20435;-82
2024/02/07 02:50:26;;;;;;;7.63;3.88;;;9.90;99.90;;;;;;4956073;28;20506;-82
2024/02/07 02:52:51;;;;;;;5.00;2.40;;;9.80;99.90;;;;;;4972704;28;20494;-81
2024/02/07 02:55:17;;;;;;;5.13;2.47;;;10.00;99.90;;;;;;4952715;28;20034;-82
2024/02/07 02:57:45;;;;;;;5.50;2.40;;;9.90;99.90;;;;;;4954432;28;20117;-82
2024/02/07 03:00:14;;;;;;;8.00;3.15;;;9.80;99.90;;;;;;4969095;28;20030;-81
2024/02/07 03:02:43;;;;;;;5.05;2.75;;;9.90;99.90;;;;;;4940768;28;20049;-82
2024/02/07 03:08:04;;;;;;;11.10;3.70;;;9.80;99.90;;;;;;4960267;28;20048;-81
2024/02/07 03:10:30;;;;;;;3.75;1.20;;;9.70;99.90;;;;;;4957408;28;20589;-82
2024/02/07 03:12:56;;;;;;;14.73;1.30;;;9.50;99.90;;;;;;4971241;28;20061;-82
2024/02/07 03:15:22;;;;;;;7.43;2.03;;;9.30;99.90;;;;;;4972602;28;20681;-82
2024/02/07 03:17:48;;;;;;;5.53;1.50;;;9.30;99.90;;;;;;4956697;28;20414;-82
2024/02/07 03:20:14;;;;;;;24.98;2.10;;;8.90;99.90;;;;;;4968064;28;20129;-82
2024/02/07 03:22:40;;;;;;;13.57;1.90;;;8.60;99.90;;;;;;4971592;28;20034;-82
2024/02/07 03:25:07;;;;;;;9.38;1.42;;;8.50;99.90;;;;;;4944390;28;20038;-81
2024/02/07 03:27:34;;;;;;;32.00;2.75;;;8.20;99.90;;;;;;4966936;28;20038;-82
2024/02/07 03:30:00;;;;;;;14.77;1.33;;;7.70;99.90;;;;;;4944453;28;20033;-81
2024/02/07 03:32:25;;;;;;;5.03;1.27;;;7.30;99.90;;;;;;4944505;28;20034;-82
2024/02/07 03:34:54;;;;;;;17.67;1.70;;;7.20;99.90;;;;;;4957095;28;20033;-81
2024/02/07 03:37:19;;;;;;;4.43;0.98;;;7.20;99.90;;;;;;4937543;28;20754;-82
2024/02/07 03:39:45;;;;;;;9.18;1.65;;;7.00;99.90;;;;;;4953384;28;20088;-82
2024/02/07 03:42:10;;;;;;;7.35;1.35;;;7.00;99.90;;;;;;4969814;28;20403;-81
2024/02/07 03:44:37;;;;;;;11.60;1.27;;;6.90;99.90;;;;;;4942546;28;20517;-81
2024/02/07 03:47:03;;;;;;;14.23;1.27;;;6.80;99.90;;;;;;4954447;28;20368;-82
2024/02/07 03:49:29;;;;;;;16.30;1.58;;;6.70;99.90;;;;;;4939184;28;20034;-82
2024/02/07 03:51:54;;;;;;;4.53;1.10;;;6.60;99.90;;;;;;4952464;28;20042;-82
2024/02/07 03:54:20;;;;;;;18.67;1.05;;;6.50;99.90;;;;;;4952575;28;20035;-81
2024/02/07 03:56:45;;;;;;;3.60;1.00;;;6.30;99.90;;;;;;4971918;28;20085;-81
2024/02/07 03:59:11;;;;;;;30.63;2.13;;;6.30;99.90;;;;;;4957984;28;20043;-82
2024/02/07 04:01:37;;;;;;;4.78;0.70;;;6.20;99.90;;;;;;4940164;28;20221;-81
2024/02/07 04:04:05;;;;;;;6.40;0.98;;;6.10;99.90;;;;;;4967530;28;20086;-81
2024/02/07 04:06:31;;;;;;;7.30;1.00;;;6.10;99.90;;;;;;4956311;28;20081;-81
2024/02/07 04:08:57;;;;;;;7.18;1.00;;;5.90;99.90;;;;;;4971606;28;20042;-81
2024/02/07 05:16:34;;;;;;;2.72;1.02;;;5.30;99.90;;;;;;4973797;28;20108;-81
2024/02/07 05:19:01;;;;;;;4.47;0.88;;;5.30;99.90;;;;;;4955003;28;20558;-81
2024/02/07 05:21:27;;;;;;;7.25;0.70;;;5.20;99.90;;;;;;4942316;28;20031;-81
2024/02/07 05:23:53;;;;;;;2.95;0.98;;;5.20;99.90;;;;;;4955910;28;20410;-81
2024/02/07 05:26:18;;;;;;;3.17;0.65;;;5.10;99.90;;;;;;4944527;28;20057;-81
2024/02/07 05:28:44;;;;;;;2.67;0.90;;;5.10;99.90;;;;;;4954581;28;20125;-81
2024/02/07 05:31:10;;;;;;;3.50;0.82;;;5.10;99.90;;;;;;4955818;28;20478;-81
2024/02/07 05:33:38;;;;;;;7.38;1.00;;;5.10;99.90;;;;;;4944219;28;20022;-81
2024/02/07 05:36:04;;;;;;;5.20;1.02;;;5.00;99.90;;;;;;4968700;28;20038;-81
2024/02/07 05:38:30;;;;;;;7.90;1.30;;;5.00;99.90;;;;;;4953346;28;20410;-80
2024/02/07 05:40:56;;;;;;;6.35;1.85;;;5.00;99.90;;;;;;4957421;28;20042;-81
2024/02/07 05:43:21;;;;;;;6.03;1.60;;;4.90;99.90;;;;;;4943426;28;20478;-81
2024/02/07 05:45:47;;;;;;;3.35;1.90;;;4.80;99.90;;;;;;4968423;28;20128;-81
2024/02/07 05:48:13;;;;;;;5.50;1.98;;;4.80;99.90;;;;;;4966869;28;21186;-81
2024/02/07 05:50:38;;;;;;;7.72;1.80;;;4.80;99.90;;;;;;4954972;28;20406;-81
2024/02/07 05:53:04;;;;;;;9.85;2.70;;;4.70;99.90;;;;;;4958505;28;20030;-82
2024/02/07 05:55:30;;;;;;;5.72;1.92;;;4.60;99.90;;;;;;4955864;28;20042;-81
2024/02/07 05:57:56;;;;;;;8.80;2.33;;;4.60;99.90;;;;;;4958096;28;20034;-82
2024/02/07 06:00:22;;;;;;;7.78;2.47;;;4.60;99.90;;;;;;4957555;28;20089;-81
2024/02/07 06:02:47;;;;;;;9.80;2.00;;;4.60;99.90;;;;;;4953205;28;20049;-81
2024/02/07 06:05:13;;;;;;;5.63;2.08;;;4.50;99.90;;;;;;4940767;28;21492;-81
2024/02/07 06:07:38;;;;;;;20.13;2.20;;;4.50;99.90;;;;;;4975930;28;20039;-81
2024/02/07 06:10:04;;;;;;;10.07;1.30;;;4.40;99.90;;;;;;4969416;28;20137;-81
2024/02/07 06:12:33;;;;;;;6.85;1.27;;;4.40;99.90;;;;;;4956984;28;20041;-81
2024/02/07 06:14:59;;;;;;;7.60;1.50;;;4.40;99.90;;;;;;4955373;28;20431;-81
2024/02/07 06:17:26;;;;;;;4.70;1.98;;;4.40;99.90;;;;;;4939518;28;20113;-81
2024/02/07 06:19:52;;;;;;;7.10;2.25;;;4.30;99.90;;;;;;4941436;28;20378;-81
2024/02/07 06:22:17;;;;;;;7.50;2.00;;;4.30;99.90;;;;;;4939117;28;20023;-81
2024/02/07 06:24:43;;;;;;;8.27;2.70;;;4.30;99.90;;;;;;4949870;28;20030;-81
2024/02/07 06:27:09;;;;;;;9.13;3.05;;;4.30;99.90;;;;;;4954925;28;20038;-80
2024/02/07 06:29:34;;;;;;;8.00;2.67;;;4.20;99.90;;;;;;4953709;28;20057;-81
2024/02/07 06:32:01;;;;;;;8.32;3.40;;;4.20;99.90;;;;;;4968858;28;20023;-81
2024/02/07 06:34:31;;;;;;;11.73;3.83;;;4.20;99.90;;;;;;4957225;28;20533;-81
2024/02/07 06:37:00;;;;;;;11.55;5.43;;;4.20;99.90;;;;;;4954947;28;20565;-81
2024/02/07 06:39:26;;;;;;;11.93;3.90;;;4.20;99.90;;;;;;4941203;28;20045;-81
2024/02/07 06:41:52;;;;;;;8.88;3.30;;;4.10;99.90;;;;;;4969099;28;20038;-81
2024/02/07 06:44:17;;;;;;;8.13;3.72;;;4.10;99.90;;;;;;4941238;28;20125;-81
2024/02/07 06:46:44;;;;;;;7.22;3.40;;;4.00;99.90;;;;;;4954871;28;20169;-82
2024/02/07 06:49:10;;;;;;;5.63;3.22;;;4.00;99.90;;;;;;4953193;28;20404;-81
2024/02/07 06:51:35;;;;;;;10.75;3.47;;;4.00;99.90;;;;;;4969926;28;20046;-81
2024/02/07 06:54:01;;;;;;;5.93;2.15;;;4.00;99.90;;;;;;4947498;28;20567;-81
2024/02/07 06:56:26;;;;;;;7.03;2.70;;;4.00;99.90;;;;;;4958805;28;20152;-81
2024/02/07 06:58:52;;;;;;;4.78;3.10;;;4.00;99.90;;;;;;4944292;28;20041;-80
2024/02/07 07:01:18;;;;;;;6.30;3.88;;;4.00;99.90;;;;;;4944682;28;20027;-81
2024/02/07 07:03:44;;;;;;;7.00;3.47;;;4.00;99.90;;;;;;4947335;28;20041;-81
2024/02/07 07:06:09;;;;;;;6.15;3.25;;;3.90;99.90;;;;;;4941430;28;20026;-81
2024/02/07 07:08:35;;;;;;;6.22;2.60;;;4.00;99.90;;;;;;4954615;28;20121;-81
2024/02/07 07:11:00;;;;;;;8.95;3.20;;;4.00;99.90;;;;;;4970808;28;20041;-81
2024/02/07 07:13:26;;;;;;;4.47;2.50;;;4.00;99.90;;;;;;4936710;28;20034;-81
2024/02/07 07:15:51;;;;;;;6.07;3.28;;;4.00;99.90;;;;;;4942168;28;20517;-81
2024/02/07 07:18:17;;;;;;;5.45;2.53;;;3.90;99.90;;;;;;4955480;28;20499;-81
2024/02/07 07:20:43;;;;;;;3.25;2.20;;;3.90;99.90;;;;;;4954801;28;20570;-81
2024/02/07 07:23:08;;;;;;;4.13;2.50;;;4.00;99.90;;;;;;4955196;28;20029;-81
2024/02/07 07:25:34;;;;;;;6.63;2.05;;;4.00;99.90;;;;;;4950348;28;20502;-81
2024/02/07 07:27:59;;;;;;;2.42;1.85;;;4.00;99.90;;;;;;4952771;28;20113;-81
2024/02/07 07:30:25;;;;;;;2.92;1.88;;;4.00;99.90;;;;;;4939715;28;20506;-81
2024/02/07 07:32:51;;;;;;;3.88;1.77;;;4.00;99.90;;;;;;4968733;28;20542;-81
2024/02/07 07:35:16;;;;;;;4.78;2.45;;;4.10;99.90;;;;;;4971969;28;20037;-81
2024/02/07 07:37:43;;;;;;;5.20;2.30;;;4.10;99.90;;;;;;4942969;28;20062;-81
2024/02/07 07:40:09;;;;;;;6.18;2.50;;;4.20;99.90;;;;;;4969711;28;20093;-80
2024/02/07 07:42:35;;;;;;;6.82;2.75;;;4.10;99.90;;;;;;4943227;28;20037;-81
2024/02/07 07:45:00;;;;;;;10.15;3.05;;;4.10;99.90;;;;;;4957046;28;20034;-80
2024/02/07 07:47:26;;;;;;;6.18;3.03;;;4.10;99.90;;;;;;4960342;28;20463;-80
2024/02/07 07:49:51;;;;;;;6.47;2.90;;;4.10;99.90;;;;;;4953318;28;20466;-80
2024/02/07 07:52:17;;;;;;;4.25;2.05;;;4.10;99.90;;;;;;4954158;28;20045;-80
2024/02/07 07:54:43;;;;;;;6.25;2.90;;;4.20;99.90;;;;;;4950585;28;20376;-80
2024/02/07 07:57:09;;;;;;;4.88;2.60;;;4.20;99.90;;;;;;4933551;28;20172;-81
2024/02/07 07:59:35;;;;;;;9.77;3.13;;;4.20;99.90;;;;;;4955665;28;20026;-80
2024/02/07 08:02:01;;;;;;;7.65;2.78;;;4.20;99.90;;;;;;4943720;28;20443;-80
2024/02/07 08:04:26;;;;;;;7.38;2.97;;;4.30;99.90;;;;;;4953613;28;20029;-80
2024/02/07 08:06:52;;;;;;;6.40;3.50;;;4.50;99.90;;;;;;4944678;28;20074;-84
2024/02/07 08:09:18;;;;;;;7.93;3.03;;;4.40;99.90;;;;;;4969214;28;20034;-83
2024/02/07 08:11:44;;;;;;;6.60;3.67;;;4.40;99.90;;;;;;4955117;28;20117;-84
2024/02/07 08:14:11;;;;;;;5.63;2.90;;;4.40;99.90;;;;;;4972457;28;20539;-84
2024/02/07 08:16:37;;;;;;;6.47;3.78;;;4.40;99.90;;;;;;4974274;28;20034;-83
2024/02/07 08:19:03;;;;;;;11.82;4.95;;;4.50;99.90;;;;;;4941636;28;20493;-80
2024/02/07 08:21:30;;;;;;;7.25;3.63;;;4.40;99.90;;;;;;4939854;28;20538;-80
2024/02/07 08:23:56;;;;;;;12.13;4.25;;;4.40;99.90;;;;;;4946405;28;20034;-81
2024/02/07 08:26:23;;;;;;;7.45;4.03;;;4.50;99.90;;;;;;4938768;28;20791;-80
2024/02/07 08:28:49;;;;;;;6.97;3.88;;;4.50;99.90;;;;;;4972297;28;20558;-81
2024/02/07 08:31:16;;;;;;;5.60;3.35;;;4.50;99.90;;;;;;4954555;28;20035;-80
2024/02/07 08:33:42;;;;;;;6.70;3.05;;;4.60;99.90;;;;;;4956042;28;20027;-80
2024/02/07 08:36:07;;;;;;;3.53;2.03;;;4.60;99.90;;;;;;4969521;28;20039;-80
2024/02/07 08:38:33;;;;;;;4.07;2.97;;;4.70;99.90;;;;;;4970951;28;20038;-80
2024/02/07 08:40:59;;;;;;;6.43;3.08;;;4.80;99.90;;;;;;4943445;28;20053;-80
2024/02/07 08:43:24;;;;;;;8.30;3.42;;;4.80;99.90;;;;;;4972410;28;20093;-80
2024/02/07 08:45:50;;;;;;;7.10;3.00;;;4.80;99.90;;;;;;4958098;28;20593;-80
2024/02/07 08:48:15;;;;;;;6.47;3.40;;;4.90;99.90;;;;;;4956842;28;20049;-80
2024/02/07 08:50:41;;;;;;;4.82;2.88;;;5.00;99.90;;;;;;4972105;28;20037;-80
2024/02/07 08:53:07;;;;;;;8.25;2.90;;;5.00;99.90;;;;;;4962324;28;20062;-80
2024/02/07 08:55:33;;;;;;;5.55;2.95;;;4.90;99.90;;;;;;4959781;28;20041;-80
2024/02/07 08:57:59;;;;;;;7.15;2.92;;;5.00;99.90;;;;;;4945529;28;20030;-80
2024/02/07 09:00:25;;;;;;;9.13;4.18;;;5.00;99.90;;;;;;4960886;28;20726;-80
2024/02/07 09:02:52;;;;;;;5.78;3.33;;;5.10;99.90;;;;;;4954507;28;20501;-81
2024/02/07 09:05:19;;;;;;;8.00;4.20;;;5.10;99.90;;;;;;4971559;28;20034;-80
2024/02/07 09:07:45;;;;;;;6.00;3.53;;;5.10;99.90;;;;;;4937904;28;20121;-80
2024/02/07 09:10:12;;;;;;;7.13;3.50;;;5.10;99.90;;;;;;4960780;28;20565;-80
2024/02/07 09:12:37;;;;;;;8.32;3.78;;;5.10;99.90;;;;;;4956771;28;20026;-81
2024/02/07 09:15:03;;;;;;;7.75;3.47;;;5.20;99.90;;;;;;4941954;28;20041;-81
2024/02/07 09:17:31;;;;;;;4.93;2.50;;;5.20;99.90;;;;;;4943503;28;20089;-81
2024/02/07 09:19:57;;;;;;;8.15;3.58;;;5.30;99.90;;;;;;4956176;28;20030;-81
2024/02/07 09:22:22;;;;;;;6.28;3.38;;;5.30;99.90;;;;;;4972706;28;20482;-82
2024/02/07 09:24:48;;;;;;;4.57;2.20;;;5.30;99.90;;;;;;4975896;28;20034;-81
2024/02/07 09:27:14;;;;;;;5.03;3.08;;;5.30;99.90;;;;;;4955234;28;20655;-81
2024/02/07 09:29:40;;;;;;;13.45;3.92;;;5.30;99.90;;;;;;4956261;28;20058;-81
2024/02/07 09:32:06;;;;;;;8.02;3.58;;;5.30;99.90;;;;;;4954961;28;20417;-81
2024/02/07 09:34:31;;;;;;;8.52;3.35;;;5.30;99.90;;;;;;4945160;28;20034;-81
2024/02/07 09:36:57;;;;;;;4.97;3.35;;;5.40;99.90;;;;;;4945596;28;20026;-78
2024/02/07 09:39:23;;;;;;;7.80;3.38;;;5.40;99.90;;;;;;4943691;28;20026;-80
2024/02/07 09:41:49;;;;;;;5.07;2.95;;;5.50;99.90;;;;;;4954300;28;20038;-79
2024/02/07 09:44:16;;;;;;;5.03;2.25;;;5.50;99.90;;;;;;4941088;28;20046;-80
2024/02/07 09:46:43;;;;;;;8.75;3.55;;;5.60;99.90;;;;;;4952768;28;20501;-80
2024/02/07 09:49:11;;;;;;;5.38;2.75;;;5.60;99.90;;;;;;4945907;28;20038;-80
2024/02/07 09:51:37;;;;;;;7.93;3.00;;;5.60;99.90;;;;;;4939786;28;20505;-80
2024/02/07 09:54:11;;;;;;;6.25;3.05;;;5.70;99.90;;;;;;4962479;28;20053;-79
2024/02/07 09:56:37;;;;;;;7.22;2.17;;;5.70;99.90;;;;;;4956048;28;20480;-80
2024/02/07 09:59:03;;;;;;;6.10;3.22;;;5.80;99.90;;;;;;4950564;28;20038;-80
2024/02/07 10:01:29;;;;;;;8.50;3.92;;;5.70;99.90;;;;;;4951475;28;20276;-80
2024/02/07 10:03:56;;;;;;;6.38;3.88;;;5.80;99.90;;;;;;4969146;28;20117;-80
2024/02/07 10:06:22;;;;;;;8.77;4.30;;;5.80;99.90;;;;;;4938058;28;20034;-80
2024/02/07 10:08:48;;;;;;;10.40;4.38;;;5.70;99.90;;;;;;4966555;28;20046;-80
2024/02/07 10:11:15;;;;;;;9.75;5.03;;;5.80;99.90;;;;;;4936882;28;20375;-80
2024/02/07 10:13:40;;;;;;;11.70;4.40;;;5.80;99.90;;;;;;4943120;28;20035;-80
2024/02/07 10:16:06;;;;;;;9.80;4.57;;;5.80;99.90;;;;;;4939721;28;20092;-80
2024/02/07 10:18:32;;;;;;;6.95;3.55;;;5.80;99.90;;;;;;4968381;28;20508;-80
2024/02/07 10:21:00;;;;;;;8.98;4.40;;;5.80;99.90;;;;;;4964037;28;20070;-79
2024/02/07 10:23:27;;;;;;;7.80;4.05;;;5.80;99.90;;;;;;4956700;28;20390;-84
2024/02/07 10:25:53;;;;;;;8.32;4.35;;;5.90;99.90;;;;;;4968936;28;20045;-81
2024/02/07 10:28:19;;;;;;;9.00;4.60;;;5.90;99.90;;;;;;4956404;28;20145;-84
2024/02/07 10:31:03;;;;;;;8.30;4.78;;;5.90;99.90;;;;;;4941144;28;20037;-84
2024/02/07 10:33:35;;;;;;;12.10;4.65;;;5.90;99.90;;;;;;4965382;28;20173;-85
2024/02/07 10:36:01;;;;;;;15.15;5.38;;;6.00;99.90;;;;;;4959863;28;20034;-84
2024/02/07 10:38:27;;;;;;;9.25;4.72;;;5.90;99.90;;;;;;4954094;28;20038;-82
2024/02/07 10:40:53;;;;;;;10.77;5.13;;;6.00;99.90;;;;;;4987566;28;20034;-84
2024/02/07 10:43:37;;;;;;;8.63;5.82;;;6.00;99.90;;;;;;4954365;28;20038;-85
2024/02/07 10:46:08;;;;;;;11.82;5.57;;;6.00;99.90;;;;;;4971910;28;20037;-84
2024/02/07 10:48:33;;;;;;;13.85;6.53;;;6.00;99.90;;;;;;4986353;28;20101;-84
2024/02/07 10:50:59;;;;;;;12.20;4.95;;;6.10;99.90;;;;;;4952332;28;20041;-84
2024/02/07 10:53:30;;;;;;;8.88;4.82;;;6.10;99.90;;;;;;4938791;28;20091;-84
2024/02/07 10:55:56;;;;;;;10.73;5.57;;;6.20;99.90;;;;;;4933080;28;20042;-85
2024/02/07 10:58:24;;;;;;;17.48;5.78;;;6.20;99.90;;;;;;4958299;28;20210;-85
2024/02/07 11:00:53;;;;;;;16.05;6.10;;;6.20;99.90;;;;;;4970178;28;20514;-85
2024/02/07 11:03:20;;;;;;;15.52;6.53;;;6.30;99.90;;;;;;4937509;28;20073;-84
2024/02/07 11:05:47;;;;;;;14.63;7.05;;;6.30;99.90;;;;;;4937397;28;20568;-85
2024/02/07 11:08:12;;;;;;;12.73;6.70;;;6.30;99.90;;;;;;4949560;28;20037;-85
2024/02/07 11:10:38;;;;;;;11.77;6.55;;;6.30;99.90;;;;;;4929853;28;20023;-85
2024/02/07 11:13:03;;;;;;;10.88;5.93;;;6.40;99.90;;;;;;4945356;28;20027;-82
2024/02/07 11:15:29;;;;;;;9.40;4.78;;;6.40;99.90;;;;;;4943434;28;20037;-83
2024/02/07 11:17:54;;;;;;;23.40;10.68;;;6.40;99.90;;;;;;4947381;28;20046;-85
2024/02/07 11:20:20;;;;;;;21.90;10.43;;;6.50;99.90;;;;;;4945038;28;20037;-84
2024/02/07 11:22:48;;;;;;;28.13;12.13;;;6.50;99.90;;;;;;4940241;28;20027;-85
2024/02/07 11:25:27;;;;;;;24.08;12.48;;;6.60;99.90;;;;;;4956000;28;20481;-86
2024/02/07 11:27:56;;;;;;;36.30;12.60;;;6.60;99.90;;;;;;4963980;28;20043;-85
2024/02/07 11:30:22;;;;;;;26.52;12.73;;;6.60;99.90;;;;;;4947375;28;20030;-86
2024/02/07 11:32:51;;;;;;;25.27;12.98;;;6.60;99.90;;;;;;4956759;28;20035;-85
2024/02/07 11:35:18;;;;;;;29.50;13.32;;;6.70;99.90;;;;;;4268602;28;10000559;-84
2024/02/07 11:37:50;;;;;;;17.40;9.25;;;6.70;99.90;;;;;;4956937;28;20053;-85
2024/02/07 11:40:17;;;;;;;13.38;7.85;;;6.80;99.90;;;;;;4966401;28;20462;-85
2024/02/07 11:42:49;;;;;;;29.08;14.32;;;6.90;99.90;;;;;;4934428;28;20713;-85
2024/02/07 11:45:15;;;;;;;28.33;12.13;;;6.90;99.90;;;;;;4964849;28;20038;-85
2024/02/07 11:47:42;;;;;;;33.53;14.90;;;7.00;99.90;;;;;;4938649;28;20054;-85
2024/02/07 11:50:12;;;;;;;41.97;15.93;;;7.00;99.90;;;;;;4956569;28;20034;-85
2024/02/07 11:52:39;;;;;;;32.75;14.75;;;7.10;99.90;;;;;;4964239;28;20050;-84
2024/02/07 11:55:08;;;;;;;28.85;14.68;;;7.20;99.90;;;;;;4966109;28;20081;-84
2024/02/07 11:57:34;;;;;;;35.95;15.10;;;7.20;99.90;;;;;;4937716;28;20355;-85
2024/02/07 12:00:04;;;;;;;30.80;14.70;;;7.30;99.90;;;;;;4948836;28;20407;-86
2024/02/07 12:02:30;;;;;;;44.08;21.42;;;7.30;99.90;;;;;;4968659;28;20043;-85
2024/02/07 12:04:56;;;;;;;42.80;18.02;;;7.30;99.90;;;;;;4956310;28;20042;-86
2024/02/07 12:07:21;;;;;;;39.38;17.17;;;7.40;99.90;;;;;;4938052;28;20138;-83
2024/02/07 12:09:47;;;;;;;35.60;17.10;;;7.40;99.90;;;;;;4968525;28;20499;-86
2024/02/07 12:12:13;;;;;;;30.50;15.82;;;7.40;99.90;;;;;;4954982;28;20043;-86
2024/02/07 12:14:42;;;;;;;39.97;17.48;;;7.40;99.90;;;;;;4967086;28;20037;-86
2024/02/07 12:17:08;;;;;;;32.78;16.02;;;7.50;99.90;;;;;;4933367;28;20033;-86
2024/02/07 12:19:35;;;;;;;15.38;7.15;;;7.50;99.90;;;;;;4936403;28;20579;-86
2024/02/07 12:22:04;;;;;;;17.08;9.20;;;7.50;99.90;;;;;;4937574;28;20039;-83
2024/02/07 12:24:32;;;;;;;24.58;12.75;;;7.60;99.90;;;;;;4953911;28;20544;-87
2024/02/07 12:27:27;;;;;;;18.30;9.65;;;7.70;99.90;;;;;;4951053;28;20034;-84
2024/02/07 12:29:54;;;;;;;31.02;16.77;;;7.60;99.90;;;;;;4944535;28;20521;-85
2024/02/07 12:32:20;;;;;;;24.75;14.00;;;7.60;99.90;;;;;;4954887;28;20067;-85
2024/02/07 12:34:48;;;;;;;39.40;16.90;;;7.70;99.90;;;;;;4940296;28;20054;-87
2024/02/07 12:37:14;;;;;;;28.77;17.17;;;7.80;99.90;;;;;;4964934;28;20031;-85
2024/02/07 12:39:40;;;;;;;28.80;15.50;;;7.80;99.90;;;;;;4966039;28;20112;-86
2024/02/07 12:42:12;;;;;;;34.00;15.30;;;7.90;99.90;;;;;;4956458;28;20030;-86
2024/02/07 12:44:38;;;;;;;30.33;15.93;;;7.90;99.90;;;;;;4968057;28;20053;-88
2024/02/07 12:47:03;;;;;;;36.65;17.30;;;8.00;99.90;;;;;;4935813;28;20030;-87
2024/02/07 12:49:29;;;;;;;27.25;14.52;;;8.10;99.90;;;;;;4953641;28;20030;-86
2024/02/07 12:51:55;;;;;;;38.22;17.15;;;8.00;99.90;;;;;;4969799;28;20777;-87
2024/02/07 12:54:20;;;;;;;32.67;15.90;;;8.00;99.90;;;;;;4938644;28;20039;-88
2024/02/07 12:56:53;;;;;;;29.52;14.32;;;8.00;99.90;;;;;;4955266;28;20039;-87
2024/02/07 12:59:34;;;;;;;36.95;17.52;;;8.00;99.90;;;;;;4941071;28;20030;-86
2024/02/07 13:02:09;;;;;;;32.05;16.27;;;8.10;99.90;;;;;;4936441;28;20037;-87
2024/02/07 13:04:34;;;;;;;41.03;18.73;;;8.10;99.90;;;;;;4955536;28;20045;-87
2024/02/07 13:07:01;;;;;;;43.38;19.80;;;8.10;99.90;;;;;;4954414;28;20540;-87
2024/02/07 13:09:27;;;;;;;44.97;18.80;;;8.10;99.90;;;;;;4962257;28;20450;-86
2024/02/07 13:11:53;;;;;;;39.00;20.02;;;8.10;99.90;;;;;;4969874;28;20417;-88
2024/02/07 13:14:18;;;;;;;34.90;16.63;;;8.20;99.90;;;;;;4967816;28;20128;-86
2024/02/07 13:16:45;;;;;;;42.67;19.30;;;8.10;99.90;;;;;;4967651;28;20229;-85
2024/02/07 13:19:15;;;;;;;36.72;18.20;;;8.10;99.90;;;;;;4954832;28;20318;-87
2024/02/07 13:21:43;;;;;;;41.75;17.92;;;8.20;99.90;;;;;;4954111;28;20046;-79
2024/02/07 13:24:17;;;;;;;31.20;15.55;;;8.20;99.90;;;;;;4948887;28;20046;-79
2024/02/07 13:26:43;;;;;;;39.92;16.23;;;8.20;99.90;;;;;;4954841;28;20467;-79
2024/02/07 13:29:08;;;;;;;44.97;18.17;;;8.20;99.90;;;;;;4957687;28;20094;-79
2024/02/07 13:31:35;;;;;;;34.92;16.00;;;8.20;99.90;;;;;;4954453;28;20038;-79
2024/02/07 13:34:10;;;;;;;36.25;15.43;;;8.20;99.90;;;;;;4970682;28;20037;-79
2024/02/07 13:36:36;;;;;;;56.08;20.90;;;8.20;99.90;;;;;;4954149;28;20046;-79
2024/02/07 13:39:02;;;;;;;35.67;16.65;;;8.20;99.90;;;;;;4955359;28;20121;-79
2024/02/07 13:41:28;;;;;;;34.65;17.38;;;8.20;99.90;;;;;;4953908;28;20149;-79
2024/02/07 13:43:54;;;;;;;26.02;12.23;;;8.30;99.90;;;;;;4970854;28;20087;-79
2024/02/07 13:46:19;;;;;;;40.42;18.98;;;8.20;99.90;;;;;;4942621;28;20030;-80
2024/02/07 13:48:45;;;;;;;42.50;19.35;;;8.30;99.90;;;;;;4958269;28;20061;-80
2024/02/07 13:51:11;;;;;;;42.05;17.98;;;8.30;99.90;;;;;;4957905;28;20518;-80
2024/02/07 13:53:37;;;;;;;41.58;19.45;;;8.30;99.90;;;;;;4940924;28;20439;-80
2024/02/07 13:56:04;;;;;;;53.75;21.33;;;8.20;99.90;;;;;;4938650;28;20045;-80
2024/02/07 13:58:29;;;;;;;46.50;20.05;;;8.30;99.90;;;;;;4967235;28;20034;-80
2024/02/07 14:00:56;;;;;;;42.15;18.65;;;8.30;99.90;;;;;;4951568;28;20049;-80
2024/02/07 14:03:21;;;;;;;44.97;18.75;;;8.30;99.90;;;;;;4953891;28;20433;-87
2024/02/07 14:05:47;;;;;;;32.53;16.25;;;8.30;99.90;;;;;;4970508;28;20133;-88